createdAt,value
2017-08-19T00:01:41.449Z,52.90
2017-08-19T00:04:08.970Z,52.20
2017-08-19T00:06:37.257Z,52.20
2017-08-19T00:09:04.777Z,52.10
2017-08-19T00:11:32.298Z,52.30
2017-08-19T00:13:59.853Z,52.30
2017-08-19T00:16:27.391Z,52.30
2017-08-19T00:18:54.920Z,52.20
2017-08-19T00:21:22.441Z,52.00
2017-08-19T00:23:49.970Z,52.00
2017-08-19T00:26:17.531Z,51.90
2017-08-19T00:28:45.059Z,51.60
2017-08-19T00:31:13.356Z,51.50
2017-08-19T00:33:40.873Z,51.50
2017-08-19T00:36:08.388Z,51.60
2017-08-19T00:38:35.933Z,51.60
2017-08-19T00:41:03.453Z,51.60
2017-08-19T00:43:30.984Z,51.80
2017-08-19T00:45:58.509Z,51.70
2017-08-19T00:48:26.034Z,51.90
2017-08-19T00:50:53.586Z,51.80
2017-08-19T00:53:21.114Z,51.90
2017-08-19T00:55:48.626Z,52.40
2017-08-19T00:58:16.913Z,52.90
2017-08-19T01:00:44.438Z,52.90
2017-08-19T01:03:11.993Z,53.30
2017-08-19T01:05:39.510Z,54.50
2017-08-19T01:08:07.031Z,54.70
2017-08-19T01:10:35.322Z,56.30
2017-08-19T01:13:02.846Z,55.60
2017-08-19T01:15:30.458Z,56.20
2017-08-19T01:17:58.030Z,57.40
2017-08-19T01:20:25.554Z,58.40
2017-08-19T01:22:53.861Z,61.20
2017-08-19T01:25:33.240Z,61.20
2017-08-19T01:28:00.781Z,63.40
2017-08-19T01:30:28.301Z,64.80
2017-08-19T01:32:55.827Z,64.60
2017-08-19T01:35:24.127Z,66.00
2017-08-19T01:37:51.641Z,65.10
2017-08-19T01:40:19.194Z,64.70
2017-08-19T01:42:46.714Z,65.30
2017-08-19T01:45:14.229Z,65.50
2017-08-19T01:47:41.751Z,65.30
2017-08-19T01:50:09.270Z,65.20
2017-08-19T01:52:36.828Z,66.70
2017-08-19T01:55:04.354Z,67.50
2017-08-19T01:57:31.987Z,69.20
2017-08-19T01:59:59.510Z,69.00
2017-08-19T02:02:27.030Z,69.30
2017-08-19T02:04:54.585Z,70.30
2017-08-19T02:07:22.107Z,69.20
2017-08-19T02:09:49.630Z,67.70
2017-08-19T02:12:17.921Z,66.20
2017-08-19T02:14:45.438Z,66.10
2017-08-19T02:17:12.985Z,65.60
2017-08-19T02:19:40.532Z,65.60
2017-08-19T02:22:08.050Z,65.30
2017-08-19T02:24:35.597Z,64.70
2017-08-19T02:27:03.889Z,64.00
2017-08-19T02:29:31.454Z,64.00
2017-08-19T02:31:58.993Z,64.70
2017-08-19T02:34:27.281Z,63.80
2017-08-19T02:36:54.797Z,63.80
2017-08-19T02:39:22.324Z,63.20
2017-08-19T02:41:49.880Z,62.80
2017-08-19T02:44:17.402Z,62.50
2017-08-19T02:46:44.933Z,61.80
2017-08-19T02:49:12.456Z,61.60
2017-08-19T02:51:39.985Z,61.30
2017-08-19T02:54:07.530Z,60.90
2017-08-19T02:56:35.853Z,60.50
2017-08-19T02:59:03.369Z,60.40
2017-08-19T03:01:31.658Z,60.40
2017-08-19T03:03:59.189Z,60.40
2017-08-19T03:06:26.741Z,60.60
2017-08-19T03:08:54.262Z,61.50
2017-08-19T03:11:21.807Z,63.00
2017-08-19T03:13:49.330Z,63.50
2017-08-19T03:16:17.613Z,67.00
2017-08-19T03:18:45.924Z,67.50
2017-08-19T03:21:13.438Z,67.40
2017-08-19T03:23:41.752Z,68.60
2017-08-19T03:26:09.269Z,67.80
2017-08-19T03:28:36.798Z,68.10
2017-08-19T03:31:04.351Z,68.10
2017-08-19T03:33:31.874Z,69.40
2017-08-19T03:35:59.405Z,70.60
2017-08-19T03:38:26.942Z,70.40
2017-08-19T03:40:54.470Z,70.50
2017-08-19T03:43:22.029Z,71.60
2017-08-19T03:45:49.553Z,71.00
2017-08-19T03:48:17.846Z,72.20
2017-08-19T03:50:45.370Z,72.20
2017-08-19T03:53:12.891Z,72.00
2017-08-19T03:55:40.434Z,73.20
2017-08-19T03:58:07.957Z,75.00
2017-08-19T04:00:36.245Z,74.30
2017-08-19T04:03:04.529Z,74.30
2017-08-19T04:05:32.057Z,74.30
2017-08-19T04:07:59.605Z,73.10
2017-08-19T04:10:27.234Z,72.70
2017-08-19T04:12:54.765Z,73.60
2017-08-19T04:15:22.288Z,73.70
2017-08-19T04:17:49.811Z,74.60
2017-08-19T04:20:17.387Z,74.10
2017-08-19T04:22:44.914Z,73.50
2017-08-19T04:25:12.434Z,72.80
2017-08-19T04:27:40.724Z,73.60
2017-08-19T04:30:09.018Z,73.00
2017-08-19T04:32:36.566Z,73.00
2017-08-19T04:35:04.098Z,74.80
2017-08-19T04:37:32.386Z,76.30
2017-08-19T04:40:00.674Z,77.20
2017-08-19T04:42:28.199Z,77.00
2017-08-19T04:44:55.759Z,76.80
2017-08-19T04:47:23.286Z,76.60
2017-08-19T04:49:50.831Z,76.20
2017-08-19T04:52:18.358Z,77.00
2017-08-19T04:54:46.642Z,76.00
2017-08-19T04:57:14.194Z,75.90
2017-08-19T04:59:42.473Z,75.40
2017-08-19T05:02:09.998Z,75.40
2017-08-19T05:04:37.521Z,75.70
2017-08-19T05:07:05.041Z,76.00
2017-08-19T05:09:33.534Z,76.70
2017-08-19T05:12:01.057Z,76.70
2017-08-19T05:14:28.578Z,76.00
2017-08-19T05:16:56.094Z,75.20
2017-08-19T05:19:24.385Z,74.70
2017-08-19T05:21:51.926Z,74.70
2017-08-19T05:24:20.218Z,75.00
2017-08-19T05:26:47.755Z,75.00
2017-08-19T05:29:16.041Z,70.60
2017-08-19T05:31:44.333Z,68.60
2017-08-19T05:34:11.892Z,68.60
2017-08-19T05:36:39.421Z,66.60
2017-08-19T05:39:07.710Z,66.30
2017-08-19T05:41:35.998Z,65.20
2017-08-19T05:44:03.523Z,65.20
2017-08-19T05:46:31.070Z,65.90
2017-08-19T05:48:58.595Z,66.40
2017-08-19T05:51:26.161Z,66.80
2017-08-19T05:53:53.682Z,66.70
2017-08-19T05:56:21.963Z,65.60
2017-08-19T05:58:49.514Z,65.60
2017-08-19T06:01:17.806Z,65.20
2017-08-19T06:03:45.326Z,65.20
2017-08-19T06:06:13.621Z,64.40
2017-08-19T06:08:41.918Z,63.00
2017-08-19T06:11:09.462Z,63.00
2017-08-19T06:13:36.986Z,62.50
2017-08-19T06:16:04.508Z,61.70
2017-08-19T06:18:32.042Z,61.80
2017-08-19T06:20:59.562Z,62.40
2017-08-19T06:23:27.113Z,62.00
2017-08-19T06:25:54.625Z,61.30
2017-08-19T06:28:22.144Z,61.00
2017-08-19T06:30:49.670Z,61.00
2017-08-19T06:33:17.197Z,61.10
2017-08-19T06:35:44.743Z,61.00
2017-08-19T06:38:13.034Z,61.60
2017-08-19T06:40:40.568Z,60.70
2017-08-19T06:43:08.865Z,59.80
2017-08-19T06:45:36.386Z,59.80
2017-08-19T06:48:03.936Z,59.60
2017-08-19T06:50:31.461Z,59.10
2017-08-19T06:52:58.982Z,58.50
2017-08-19T06:55:27.281Z,58.60
2017-08-19T06:57:54.801Z,58.60
2017-08-19T07:00:22.342Z,58.50
2017-08-19T07:02:49.869Z,58.40
2017-08-19T07:05:17.385Z,58.60
2017-08-19T07:07:45.674Z,59.00
2017-08-19T07:10:13.208Z,59.00
2017-08-19T07:12:40.759Z,58.90
2017-08-19T07:15:08.278Z,58.60
2017-08-19T07:17:36.054Z,58.30
2017-08-19T07:20:03.587Z,58.70
2017-08-19T07:22:31.109Z,58.50
2017-08-19T07:24:59.436Z,58.10
2017-08-19T07:27:26.956Z,58.10
2017-08-19T07:29:55.249Z,57.50
2017-08-19T07:32:22.778Z,57.50
2017-08-19T07:34:50.310Z,57.50
2017-08-19T07:37:17.859Z,57.60
2017-08-19T07:39:45.382Z,57.50
2017-08-19T07:42:12.905Z,57.40
2017-08-19T07:44:40.422Z,57.40
2017-08-19T07:47:07.961Z,57.30
2017-08-19T07:49:35.523Z,57.10
2017-08-19T07:52:03.046Z,56.90
2017-08-19T07:54:30.566Z,57.60
2017-08-19T07:56:58.086Z,57.80
2017-08-19T07:59:25.619Z,57.90
2017-08-19T08:01:53.169Z,58.60
2017-08-19T08:04:20.695Z,59.10
2017-08-19T08:06:48.222Z,59.30
2017-08-19T08:09:15.764Z,59.30
2017-08-19T08:11:44.057Z,59.40
2017-08-19T08:14:11.610Z,59.40
2017-08-19T08:16:39.134Z,59.60
2017-08-19T08:19:06.659Z,59.70
2017-08-19T08:21:34.181Z,59.60
2017-08-19T08:24:02.479Z,59.20
2017-08-19T08:26:30.026Z,59.20
2017-08-19T08:28:57.553Z,59.00
2017-08-19T08:31:25.082Z,58.90
2017-08-19T08:33:52.609Z,58.80
2017-08-19T08:36:20.126Z,58.10
2017-08-19T08:38:47.678Z,58.60
2017-08-19T08:41:15.201Z,59.10
2017-08-19T08:43:42.725Z,59.10
2017-08-19T08:46:11.010Z,60.10
2017-08-19T08:48:38.539Z,60.10
2017-08-19T08:51:06.090Z,61.40
2017-08-19T08:53:33.620Z,61.70
2017-08-19T08:56:01.149Z,61.30
2017-08-19T08:58:28.674Z,60.70
2017-08-19T09:00:56.967Z,60.40
2017-08-19T09:03:25.290Z,59.50
2017-08-19T09:05:52.813Z,59.50
2017-08-19T09:08:20.350Z,59.40
2017-08-19T09:10:48.650Z,59.20
2017-08-19T09:13:16.178Z,59.00
2017-08-19T09:15:43.728Z,59.90
2017-08-19T09:18:11.254Z,59.80
2017-08-19T09:20:38.783Z,58.80
2017-08-19T09:23:06.313Z,59.00
2017-08-19T09:25:34.606Z,59.90
2017-08-19T09:28:02.922Z,59.30
2017-08-19T09:30:30.450Z,59.30
2017-08-19T09:32:57.985Z,59.20
2017-08-19T09:35:26.282Z,58.70
2017-08-19T09:37:53.805Z,58.70
2017-08-19T09:40:21.378Z,59.10
2017-08-19T09:42:49.670Z,58.60
2017-08-19T09:45:17.963Z,58.40
2017-08-19T09:47:45.489Z,58.40
2017-08-19T09:50:13.785Z,57.80
2017-08-19T09:52:41.338Z,57.70
2017-08-19T09:55:09.625Z,58.20
2017-08-19T09:57:37.154Z,58.20
2017-08-19T10:00:05.446Z,59.30
2017-08-19T10:02:33.738Z,58.70
2017-08-19T10:05:01.297Z,58.70
2017-08-19T10:07:28.826Z,58.10
2017-08-19T10:09:57.126Z,57.30
2017-08-19T10:12:24.650Z,57.30
2017-08-19T10:14:52.177Z,56.60
2017-08-19T10:17:19.733Z,57.50
2017-08-19T10:19:47.272Z,57.60
2017-08-19T10:22:14.812Z,58.40
2017-08-19T10:24:42.350Z,58.10
2017-08-19T10:27:10.646Z,59.40
2017-08-19T10:29:38.962Z,59.80
2017-08-19T10:32:06.494Z,59.80
2017-08-19T10:34:34.029Z,59.90
2017-08-19T10:37:02.327Z,58.70
2017-08-19T10:39:29.841Z,58.60
2017-08-19T10:41:57.402Z,57.80
2017-08-19T10:44:24.927Z,58.80
2017-08-19T10:46:52.445Z,58.60
2017-08-19T10:49:20.733Z,57.90
2017-08-19T10:51:48.258Z,57.90
2017-08-19T10:54:15.877Z,58.50
2017-08-19T10:56:43.398Z,58.80
2017-08-19T10:59:11.686Z,56.50
2017-08-19T11:01:39.221Z,56.40
2017-08-19T11:04:07.509Z,56.40
2017-08-19T11:06:35.827Z,57.30
2017-08-19T11:09:03.358Z,57.30
2017-08-19T11:11:30.917Z,58.00
2017-08-19T11:13:58.449Z,58.00
2017-08-19T11:16:26.742Z,57.30
2017-08-19T11:18:55.057Z,57.00
2017-08-19T11:21:22.613Z,56.90
2017-08-19T11:23:50.166Z,56.30
2017-08-19T11:26:17.681Z,56.40
2017-08-19T11:28:45.970Z,56.90
2017-08-19T11:31:14.301Z,57.00
2017-08-19T11:33:41.816Z,56.90
2017-08-19T11:36:09.342Z,56.80
2017-08-19T11:38:36.871Z,56.80
2017-08-19T11:41:04.389Z,57.10
2017-08-19T11:43:31.926Z,56.00
2017-08-19T11:46:00.217Z,54.40
2017-08-19T11:48:27.749Z,54.40
2017-08-19T11:50:55.282Z,53.90
2017-08-19T11:53:22.805Z,53.70
2017-08-19T11:55:50.385Z,53.30
2017-08-19T11:58:17.940Z,52.80
2017-08-19T12:00:45.470Z,51.60
2017-08-19T12:03:12.998Z,51.00
2017-08-19T12:05:40.549Z,51.30
2017-08-19T12:08:08.078Z,51.10
2017-08-19T12:10:35.609Z,50.00
2017-08-19T12:13:03.149Z,49.60
2017-08-19T12:15:31.435Z,47.80
2017-08-19T12:17:58.962Z,47.70
2017-08-19T12:20:26.513Z,46.30
2017-08-19T12:22:54.038Z,45.30
2017-08-19T12:25:21.558Z,42.80
2017-08-19T12:27:49.850Z,41.60
2017-08-19T12:30:17.382Z,42.20
2017-08-19T12:32:45.703Z,40.90
2017-08-19T12:35:13.236Z,41.20
2017-08-19T12:37:41.521Z,41.10
2017-08-19T12:40:09.046Z,41.10
2017-08-19T12:42:36.566Z,42.10
2017-08-19T12:45:04.139Z,42.80
2017-08-19T12:47:31.665Z,43.20
2017-08-19T12:49:59.240Z,42.70
2017-08-19T12:52:26.761Z,42.60
2017-08-19T12:54:55.049Z,43.00
2017-08-19T12:57:22.598Z,42.90
2017-08-19T12:59:50.122Z,43.00
2017-08-19T13:02:17.650Z,42.70
2017-08-19T13:04:45.189Z,41.50
2017-08-19T13:07:12.705Z,40.70
2017-08-19T13:09:40.266Z,39.40
2017-08-19T13:12:07.797Z,38.00
2017-08-19T13:14:35.324Z,38.90
2017-08-19T13:17:02.842Z,36.30
2017-08-19T13:19:31.146Z,32.90
2017-08-19T13:21:59.038Z,32.80
2017-08-19T13:24:26.563Z,32.00
2017-08-19T13:26:54.850Z,32.20
2017-08-19T13:29:22.454Z,32.20
2017-08-19T13:31:49.976Z,33.50
2017-08-19T13:34:17.561Z,35.30
2017-08-19T13:36:45.905Z,35.90
2017-08-19T13:39:13.425Z,35.80
2017-08-19T13:41:40.945Z,35.90
2017-08-19T13:44:08.465Z,36.50
2017-08-19T13:46:36.793Z,33.30
2017-08-19T13:49:04.315Z,33.30
2017-08-19T13:51:31.835Z,31.30
2017-08-19T13:53:59.351Z,31.30
2017-08-19T13:56:26.874Z,31.30
2017-08-19T13:58:55.190Z,34.70
2017-08-19T14:01:22.713Z,34.70
2017-08-19T14:03:51.002Z,36.80
2017-08-19T14:06:18.526Z,36.70
2017-08-19T14:08:46.081Z,37.10
2017-08-19T14:11:14.398Z,39.80
2017-08-19T14:13:41.921Z,39.10
2017-08-19T14:16:09.536Z,37.20
2017-08-19T14:18:37.067Z,35.10
2017-08-19T14:21:04.602Z,32.30
2017-08-19T14:23:32.157Z,29.20
2017-08-19T14:25:59.678Z,28.00
2017-08-19T14:28:27.201Z,26.90
2017-08-19T14:30:54.731Z,26.30
2017-08-19T14:33:23.072Z,24.20
2017-08-19T14:35:50.622Z,24.20
2017-08-19T14:38:18.148Z,24.30
2017-08-19T14:40:46.434Z,26.00
2017-08-19T14:43:13.961Z,26.00
2017-08-19T14:45:41.486Z,27.40
2017-08-19T14:48:09.035Z,27.40
2017-08-19T14:50:36.557Z,28.10
2017-08-19T14:53:04.853Z,29.00
2017-08-19T14:55:32.382Z,29.00
2017-08-19T14:58:00.669Z,30.00
2017-08-19T15:00:29.077Z,30.30
2017-08-19T15:02:56.606Z,30.30
2017-08-19T15:05:24.890Z,31.20
2017-08-19T15:07:52.406Z,31.20
2017-08-19T15:10:19.929Z,31.90
2017-08-19T15:12:47.473Z,32.80
2017-08-19T15:15:14.997Z,34.00
2017-08-19T15:17:43.283Z,36.20
2017-08-19T15:20:11.573Z,36.50
2017-08-19T15:22:39.100Z,36.50
2017-08-19T15:25:06.693Z,37.80
2017-08-19T15:27:34.214Z,35.20
2017-08-19T15:30:01.733Z,34.70
2017-08-19T15:32:29.262Z,35.30
2017-08-19T15:34:56.781Z,34.40
2017-08-19T15:37:24.322Z,35.40
2017-08-19T15:39:51.850Z,36.40
2017-08-19T15:42:19.370Z,36.70
2017-08-19T15:44:46.886Z,37.60
2017-08-19T15:47:14.409Z,37.70
2017-08-19T15:49:41.957Z,38.30
2017-08-19T15:52:10.261Z,39.40
2017-08-19T15:54:37.834Z,39.40
2017-08-19T15:57:05.354Z,39.90
2017-08-19T15:59:33.642Z,40.20
2017-08-19T16:02:01.196Z,40.20
2017-08-19T16:04:28.714Z,41.40
2017-08-19T16:06:56.233Z,42.00
2017-08-19T16:09:23.757Z,41.80
2017-08-19T16:11:52.041Z,41.90
2017-08-19T16:14:20.354Z,41.60
2017-08-19T16:16:47.878Z,41.50
2017-08-19T16:19:16.162Z,41.80
2017-08-19T16:21:43.683Z,41.80
2017-08-19T16:24:11.209Z,41.40
2017-08-19T16:26:38.763Z,41.60
2017-08-19T16:29:06.285Z,41.40
2017-08-19T16:31:34.570Z,41.70
2017-08-19T16:34:02.129Z,41.70
2017-08-19T16:36:29.654Z,41.40
2017-08-19T16:38:57.201Z,42.20
2017-08-19T16:41:24.721Z,42.10
2017-08-19T16:43:52.238Z,41.70
2017-08-19T16:46:19.765Z,42.40
2017-08-19T16:48:47.282Z,43.00
2017-08-19T16:51:14.838Z,42.70
2017-08-19T16:53:42.357Z,41.80
2017-08-19T16:56:09.878Z,42.60
2017-08-19T16:58:37.402Z,42.40
2017-08-19T17:01:05.697Z,43.20
2017-08-19T17:03:33.254Z,43.20
2017-08-19T17:06:00.778Z,43.10
2017-08-19T17:08:29.108Z,42.90
2017-08-19T17:10:56.634Z,43.20
2017-08-19T17:13:24.157Z,43.80
2017-08-19T17:15:51.741Z,43.20
2017-08-19T17:18:20.041Z,44.30
2017-08-19T17:20:47.566Z,44.30
2017-08-19T17:23:15.087Z,45.10
2017-08-19T17:25:42.614Z,45.60
2017-08-19T17:28:10.158Z,45.70
2017-08-19T17:30:37.682Z,45.10
2017-08-19T17:33:05.198Z,45.60
2017-08-19T17:35:32.719Z,46.20
2017-08-19T17:38:01.022Z,46.60
2017-08-19T17:40:28.569Z,46.50
2017-08-19T17:42:56.862Z,46.30
2017-08-19T17:45:24.437Z,46.20
2017-08-19T17:47:51.963Z,46.40
2017-08-19T17:50:20.249Z,46.30
2017-08-19T17:52:47.794Z,46.20
2017-08-19T17:55:16.081Z,45.40
2017-08-19T17:57:43.606Z,45.30
2017-08-19T18:00:11.143Z,45.70
2017-08-19T18:02:38.670Z,45.30
2017-08-19T18:05:06.221Z,46.30
2017-08-19T18:07:33.747Z,46.20
2017-08-19T18:10:01.271Z,46.20
2017-08-19T18:12:28.793Z,46.40
2017-08-19T18:14:56.317Z,46.60
2017-08-19T18:17:23.870Z,46.50
2017-08-19T18:19:51.390Z,47.00
2017-08-19T18:22:18.955Z,46.60
2017-08-19T18:24:46.473Z,46.30
2017-08-19T18:27:14.761Z,45.90
2017-08-19T18:29:42.318Z,45.90
2017-08-19T18:32:09.852Z,46.40
2017-08-19T18:34:38.153Z,46.60
2017-08-19T18:37:05.717Z,46.60
2017-08-19T18:39:33.249Z,47.00
2017-08-19T18:42:01.585Z,47.60
2017-08-19T18:44:29.110Z,47.00
2017-08-19T18:46:56.633Z,47.20
2017-08-19T18:49:24.157Z,46.80
2017-08-19T18:51:51.692Z,46.90
2017-08-19T18:54:19.246Z,47.00
2017-08-19T18:56:46.833Z,47.00
2017-08-19T18:59:14.359Z,46.70
2017-08-19T19:01:41.890Z,47.30
2017-08-19T19:04:10.187Z,47.70
2017-08-19T19:06:37.752Z,47.10
2017-08-19T19:09:05.275Z,47.40
2017-08-19T19:11:32.806Z,47.40
2017-08-19T19:14:00.330Z,47.80
2017-08-19T19:16:27.865Z,47.50
2017-08-19T19:18:56.188Z,47.70
2017-08-19T19:21:23.710Z,47.70
2017-08-19T19:23:51.994Z,47.50
2017-08-19T19:26:19.525Z,47.40
2017-08-19T19:28:47.049Z,47.80
2017-08-19T19:31:14.597Z,47.70
2017-08-19T19:33:42.127Z,48.30
2017-08-19T19:36:09.651Z,48.40
2017-08-19T19:38:37.181Z,48.20
2017-08-19T19:41:04.702Z,48.30
2017-08-19T19:43:32.250Z,48.30
2017-08-19T19:46:00.565Z,48.80
2017-08-19T19:48:28.085Z,48.80
2017-08-19T19:50:56.379Z,48.60
2017-08-19T19:53:23.907Z,48.60
2017-08-19T19:55:52.221Z,49.50
2017-08-19T19:58:19.785Z,49.20
2017-08-19T20:00:47.334Z,49.30
2017-08-19T20:03:14.873Z,49.20
2017-08-19T20:05:43.181Z,49.50
2017-08-19T20:08:10.873Z,49.50
2017-08-19T20:10:38.428Z,49.50
2017-08-19T20:13:05.970Z,49.70
2017-08-19T20:15:33.497Z,49.50
2017-08-19T20:18:01.100Z,49.50
2017-08-19T20:20:28.666Z,49.50
2017-08-19T20:22:56.198Z,49.60
2017-08-19T20:25:23.729Z,49.90
2017-08-19T20:27:51.249Z,49.80
2017-08-19T20:30:18.785Z,48.50
2017-08-19T20:32:46.351Z,48.60
2017-08-19T20:35:13.879Z,48.50
2017-08-19T20:37:41.401Z,48.60
2017-08-19T20:40:09.703Z,49.20
2017-08-19T20:42:37.254Z,48.40
2017-08-19T20:45:04.844Z,48.50
2017-08-19T20:47:32.373Z,47.00
2017-08-19T20:49:59.973Z,47.70
2017-08-19T20:52:27.526Z,48.10
2017-08-19T20:54:55.049Z,48.00
2017-08-19T20:57:22.605Z,48.10
2017-08-19T20:59:50.895Z,48.40
2017-08-19T21:02:18.429Z,48.40
2017-08-19T21:04:46.730Z,48.70
2017-08-19T21:07:14.258Z,48.70
2017-08-19T21:09:42.584Z,48.80
2017-08-19T21:12:10.109Z,48.80
2017-08-19T21:14:38.402Z,49.10
2017-08-19T21:17:05.939Z,49.00
2017-08-19T21:19:34.242Z,49.10
2017-08-19T21:22:01.834Z,49.10
2017-08-19T21:24:29.368Z,49.50
2017-08-19T21:26:56.893Z,49.50
2017-08-19T21:29:25.181Z,49.70
2017-08-19T21:31:52.710Z,49.60
2017-08-19T21:34:20.272Z,49.60
2017-08-19T21:36:48.602Z,50.10
2017-08-19T21:39:16.130Z,50.00
2017-08-19T21:41:43.655Z,49.80
2017-08-19T21:44:11.182Z,49.80
2017-08-19T21:46:38.733Z,50.00
2017-08-19T21:49:06.268Z,50.00
2017-08-19T21:51:33.794Z,49.50
2017-08-19T21:54:01.335Z,49.70
2017-08-19T21:56:28.866Z,49.60
2017-08-19T21:58:56.421Z,49.30
2017-08-19T22:01:23.954Z,49.40
2017-08-19T22:03:51.477Z,49.50
2017-08-19T22:06:19.003Z,49.60
2017-08-19T22:08:46.534Z,49.60
2017-08-19T22:11:14.082Z,49.60
2017-08-19T22:13:42.370Z,50.00
2017-08-19T22:16:09.893Z,49.90
2017-08-19T22:18:37.405Z,49.90
2017-08-19T22:21:04.929Z,49.90
2017-08-19T22:23:32.494Z,50.10
2017-08-19T22:26:00.029Z,50.20
2017-08-19T22:28:27.554Z,50.40
2017-08-19T22:30:55.082Z,50.60
2017-08-19T22:33:22.606Z,50.70
2017-08-19T22:35:50.157Z,50.60
2017-08-19T22:38:17.693Z,50.70
2017-08-19T22:43:21.917Z,51.10
2017-08-19T22:45:49.447Z,51.20
2017-08-19T22:48:16.999Z,51.40
2017-08-19T22:50:44.530Z,51.20
2017-08-19T22:53:12.053Z,51.40
2017-08-19T22:55:39.577Z,51.50
2017-08-19T22:58:07.105Z,51.50
2017-08-19T23:00:34.649Z,51.70
2017-08-19T23:03:02.174Z,51.80
2017-08-19T23:05:29.701Z,51.90
2017-08-19T23:07:57.229Z,51.80
2017-08-19T23:10:24.754Z,51.80
2017-08-19T23:12:52.312Z,52.00
2017-08-19T23:15:19.839Z,52.00
2017-08-19T23:17:47.369Z,52.00
2017-08-19T23:20:14.893Z,51.80
2017-08-19T23:22:42.426Z,51.70
2017-08-19T23:25:09.981Z,51.70
2017-08-19T23:27:37.561Z,51.90
2017-08-19T23:30:05.091Z,52.00
2017-08-19T23:32:32.618Z,52.30
2017-08-19T23:35:00.147Z,52.40
2017-08-19T23:37:27.703Z,52.40
2017-08-19T23:39:55.226Z,52.50
2017-08-19T23:42:22.768Z,52.70
2017-08-19T23:44:51.062Z,53.20
2017-08-19T23:47:18.592Z,53.20
2017-08-19T23:49:46.915Z,54.00
2017-08-19T23:52:14.448Z,53.30
2017-08-19T23:54:41.978Z,53.30
2017-08-19T23:57:09.506Z,53.50
2017-08-19T23:59:37.053Z,53.40
